createdAt,value
2023-12-01T00:02:34.388Z,-2.60
2023-12-01T00:06:20.827Z,-2.60
2023-12-01T00:10:07.033Z,-2.59
2023-12-01T00:13:39.561Z,-2.58
2023-12-01T00:17:19.058Z,-2.57
2023-12-01T00:21:05.436Z,-2.56
2023-12-01T00:24:34.647Z,-2.56
2023-12-01T00:28:04.636Z,-2.56
2023-12-01T00:31:50.759Z,-2.58
2023-12-01T00:35:18.485Z,-2.57
2023-12-01T00:38:35.195Z,-2.58
2023-12-01T00:42:21.417Z,-2.58
2023-12-01T00:46:20.560Z,-2.60
2023-12-01T00:50:06.625Z,-2.62
2023-12-01T00:53:53.227Z,-2.65
2023-12-01T00:57:39.718Z,-2.69
2023-12-01T01:01:29.001Z,-2.72
2023-12-01T01:05:15.283Z,-2.76
2023-12-01T01:08:44.101Z,-2.78
2023-12-01T01:12:28.842Z,-2.81
2023-12-01T01:16:10.550Z,-2.82
2023-12-01T01:19:56.884Z,-2.83
2023-12-01T01:23:43.590Z,-2.87
2023-12-01T01:27:29.773Z,-2.89
2023-12-01T01:31:16.226Z,-2.94
2023-12-01T01:35:02.426Z,-2.99
2023-12-01T01:38:15.085Z,-3.03
2023-12-01T01:42:01.464Z,-3.04
2023-12-01T01:45:48.000Z,-3.05
2023-12-01T01:49:34.215Z,-3.08
2023-12-01T01:53:20.824Z,-3.11
2023-12-01T01:56:58.967Z,-3.14
2023-12-01T02:03:45.416Z,-3.14
2023-12-01T02:06:14.924Z,-3.11
2023-12-01T02:08:45.135Z,-3.10
2023-12-01T02:11:15.024Z,-3.09
2023-12-01T02:13:48.627Z,-3.07
2023-12-01T02:16:15.569Z,-3.06
2023-12-01T02:18:44.078Z,-3.05
2023-12-01T02:21:12.846Z,-3.03
2023-12-01T02:23:40.369Z,-3.00
2023-12-01T02:26:12.101Z,-2.99
2023-12-01T02:28:39.054Z,-2.97
2023-12-01T02:31:06.781Z,-2.96
2023-12-01T02:33:38.349Z,-2.96
2023-12-01T02:36:13.233Z,-2.97
2023-12-01T02:38:46.932Z,-2.96
2023-12-01T02:41:17.334Z,-2.98
2023-12-01T02:43:46.110Z,-2.98
2023-12-01T02:46:13.514Z,-3.04
2023-12-01T02:48:41.417Z,-3.11
2023-12-01T02:51:09.407Z,-3.13
2023-12-01T02:53:37.916Z,-3.20
2023-12-01T02:56:11.010Z,-3.25
2023-12-01T02:58:38.414Z,-3.31
2023-12-01T03:01:07.650Z,-3.37
2023-12-01T03:03:55.398Z,-3.35
2023-12-01T03:06:44.757Z,-3.32
2023-12-01T03:09:24.193Z,-3.31
2023-12-01T03:12:13.355Z,-3.27
2023-12-01T03:14:40.450Z,-3.22
2023-12-01T03:17:47.935Z,-3.19
2023-12-01T03:20:29.858Z,-3.16
2023-12-01T03:23:16.308Z,-3.13
2023-12-01T03:26:03.003Z,-3.10
2023-12-01T03:28:39.114Z,-3.10
2023-12-01T03:31:09.360Z,-3.15
2023-12-01T03:33:41.596Z,-3.12
2023-12-01T03:36:09.480Z,-3.12
2023-12-01T03:38:57.358Z,-3.13
2023-12-01T03:41:25.426Z,-3.14
2023-12-01T03:43:52.060Z,-3.13
2023-12-01T03:46:22.764Z,-3.15
2023-12-01T03:49:09.344Z,-3.17
2023-12-01T03:51:57.830Z,-3.19
2023-12-01T03:54:24.666Z,-3.21
2023-12-01T03:56:53.778Z,-3.21
2023-12-01T03:59:23.864Z,-3.24
2023-12-01T04:02:10.586Z,-3.34
2023-12-01T04:04:43.370Z,-3.39
2023-12-01T04:07:10.565Z,-3.39
2023-12-01T04:09:39.758Z,-3.44
2023-12-01T04:12:11.505Z,-3.52
2023-12-01T04:14:39.308Z,-3.56
2023-12-01T04:17:16.044Z,-3.56
2023-12-01T04:20:22.124Z,-3.57
2023-12-01T04:22:58.398Z,-3.62
2023-12-01T04:25:26.643Z,-3.64
2023-12-01T04:27:57.537Z,-3.66
2023-12-01T04:30:25.485Z,-3.67
2023-12-01T04:32:58.679Z,-3.67
2023-12-01T04:35:33.490Z,-3.67
2023-12-01T04:38:23.937Z,-3.65
2023-12-01T04:40:51.464Z,-3.63
2023-12-01T04:43:21.118Z,-3.60
2023-12-01T04:46:07.787Z,-3.56
2023-12-01T04:48:35.135Z,-3.53
2023-12-01T04:51:01.941Z,-3.55
2023-12-01T04:53:29.123Z,-3.56
2023-12-01T04:55:57.773Z,-3.53
2023-12-01T04:58:25.237Z,-3.50
2023-12-01T05:00:52.597Z,-3.48
2023-12-01T05:03:19.332Z,-3.47
2023-12-01T05:05:47.320Z,-3.47
2023-12-01T05:08:13.944Z,-3.54
2023-12-01T05:10:45.697Z,-3.60
2023-12-01T05:13:16.906Z,-3.67
2023-12-01T05:15:45.196Z,-3.69
2023-12-01T05:18:12.580Z,-3.66
2023-12-01T05:20:40.511Z,-3.65
2023-12-01T05:23:13.061Z,-3.65
2023-12-01T05:25:42.146Z,-3.61
2023-12-01T05:29:09.364Z,-3.62
2023-12-01T05:32:56.547Z,-3.64
2023-12-01T05:36:43.777Z,-3.72
2023-12-01T05:40:17.763Z,-3.70
2023-12-01T05:44:04.612Z,-3.68
2023-12-01T05:47:35.812Z,-3.69
2023-12-01T05:51:26.818Z,-3.67
2023-12-01T05:55:14.102Z,-3.65
2023-12-01T05:59:00.571Z,-3.65
2023-12-01T06:02:47.497Z,-3.74
2023-12-01T06:06:34.595Z,-3.80
2023-12-01T06:10:21.573Z,-3.82
2023-12-01T06:14:08.308Z,-3.84
2023-12-01T06:17:56.230Z,-3.88
2023-12-01T06:21:43.311Z,-3.83
2023-12-01T06:25:18.633Z,-3.82
2023-12-01T06:29:05.330Z,-3.80
2023-12-01T06:32:52.177Z,-3.74
2023-12-01T06:36:39.285Z,-3.74
2023-12-01T06:40:35.673Z,-3.69
2023-12-01T06:44:21.682Z,-3.60
2023-12-01T06:48:08.619Z,-3.53
2023-12-01T06:51:55.470Z,-3.55
2023-12-01T06:55:44.780Z,-3.52
2023-12-01T06:59:22.348Z,-3.43
2023-12-01T07:03:09.873Z,-3.35
2023-12-01T07:06:56.256Z,-3.29
2023-12-01T07:10:42.918Z,-3.24
2023-12-01T07:14:31.025Z,-3.27
2023-12-01T07:18:21.192Z,-3.17
2023-12-01T07:22:08.031Z,-3.06
2023-12-01T07:25:56.176Z,-3.01
2023-12-01T07:29:44.956Z,-2.97
2023-12-01T07:33:31.913Z,-2.87
2023-12-01T07:37:21.896Z,-2.77
2023-12-01T07:41:09.139Z,-2.68
2023-12-01T07:44:56.517Z,-2.58
2023-12-01T07:48:45.323Z,-2.53
2023-12-01T07:52:32.259Z,-2.44
2023-12-01T07:56:19.067Z,-2.31
2023-12-01T08:00:05.928Z,-2.20
2023-12-01T08:03:52.941Z,-2.08
2023-12-01T08:11:27.341Z,-1.83
2023-12-01T08:15:14.889Z,-1.74
2023-12-01T08:19:02.568Z,-1.71
2023-12-01T08:22:52.647Z,-1.63
2023-12-01T08:26:42.700Z,-1.51
2023-12-01T08:30:28.663Z,-1.39
2023-12-01T08:34:22.455Z,-1.31
2023-12-01T08:38:02.919Z,-1.32
2023-12-01T08:41:50.478Z,-1.33
2023-12-01T08:45:41.610Z,-1.20
2023-12-01T08:49:28.126Z,-1.16
2023-12-01T08:53:16.153Z,-1.03
2023-12-01T08:57:03.278Z,-0.90
2023-12-01T09:04:44.074Z,-0.63
2023-12-01T09:08:38.338Z,-0.45
2023-12-01T09:12:25.746Z,-0.28
2023-12-01T09:16:12.960Z,-0.11
2023-12-01T09:20:03.047Z,0.04
2023-12-01T09:23:50.394Z,0.19
2023-12-01T09:27:39.282Z,0.37
2023-12-01T09:31:27.811Z,0.54
2023-12-01T09:35:53.492Z,0.68
2023-12-01T09:39:07.824Z,0.82
2023-12-01T09:42:55.650Z,0.96
2023-12-01T09:46:43.085Z,1.07
2023-12-01T09:50:41.616Z,1.11
2023-12-01T09:54:28.962Z,1.17
2023-12-01T09:58:16.312Z,1.23
2023-12-01T10:02:03.707Z,1.30
2023-12-01T10:05:51.999Z,1.35
2023-12-01T10:09:39.458Z,1.23
2023-12-01T10:13:35.550Z,1.06
2023-12-01T10:17:23.128Z,0.95
2023-12-01T10:21:10.449Z,0.98
2023-12-01T10:25:00.908Z,1.15
2023-12-01T10:28:48.060Z,1.31
2023-12-01T10:32:35.406Z,1.42
2023-12-01T10:36:23.517Z,1.55
2023-12-01T10:40:11.197Z,1.68
2023-12-01T10:44:00.004Z,1.79
2023-12-01T10:47:51.325Z,1.82
2023-12-01T10:51:38.524Z,1.91
2023-12-01T10:55:29.431Z,1.96
2023-12-01T10:59:16.884Z,1.96
2023-12-01T11:03:04.936Z,2.01
2023-12-01T11:06:51.936Z,2.08
2023-12-01T11:10:57.154Z,2.15
2023-12-01T11:14:50.109Z,2.17
2023-12-01T11:18:39.003Z,2.18
2023-12-01T11:22:26.004Z,2.16
2023-12-01T11:26:22.500Z,2.19
2023-12-01T11:30:12.564Z,2.29
2023-12-01T11:34:00.135Z,2.36
2023-12-01T11:37:50.597Z,2.38
2023-12-01T11:41:40.564Z,2.42
2023-12-01T11:45:37.462Z,2.50
2023-12-01T11:49:27.375Z,2.54
2023-12-01T11:53:17.406Z,2.52
2023-12-01T11:57:05.023Z,2.50
2023-12-01T12:01:01.579Z,2.48
2023-12-01T12:04:49.302Z,2.44
2023-12-01T12:08:36.483Z,2.41
2023-12-01T12:12:23.817Z,2.33
2023-12-01T12:16:11.538Z,2.26
2023-12-01T12:20:09.510Z,2.17
2023-12-01T12:23:53.024Z,2.10
2023-12-01T12:27:40.547Z,2.02
2023-12-01T12:31:27.975Z,1.96
2023-12-01T12:35:15.347Z,1.87
2023-12-01T12:39:02.591Z,1.81
2023-12-01T12:42:52.842Z,1.75
2023-12-01T12:46:40.386Z,1.72
2023-12-01T12:50:29.176Z,1.71
2023-12-01T12:54:18.120Z,1.63
2023-12-01T12:58:05.012Z,1.58
2023-12-01T13:01:52.355Z,1.60
2023-12-01T13:05:39.987Z,1.55
2023-12-01T13:09:30.149Z,1.48
2023-12-01T13:13:17.339Z,1.42
2023-12-01T13:17:05.041Z,1.33
2023-12-01T13:20:52.532Z,1.28
2023-12-01T13:24:40.012Z,1.25
2023-12-01T13:28:27.235Z,1.18
2023-12-01T13:32:14.907Z,1.11
2023-12-01T13:36:04.096Z,1.02
2023-12-01T13:39:51.131Z,0.95
2023-12-01T13:43:39.125Z,0.90
2023-12-01T13:47:26.197Z,0.91
2023-12-01T13:51:15.947Z,0.85
2023-12-01T13:55:03.311Z,0.85
2023-12-01T13:58:53.035Z,0.84
2023-12-01T14:02:41.816Z,0.81
2023-12-01T14:06:29.197Z,0.77
2023-12-01T14:10:19.285Z,0.72
2023-12-01T14:17:51.588Z,0.56
2023-12-01T14:21:38.794Z,0.49
2023-12-01T14:25:26.237Z,0.47
2023-12-01T14:29:18.103Z,0.44
2023-12-01T14:33:05.471Z,0.36
2023-12-01T14:36:52.920Z,0.32
2023-12-01T14:40:41.979Z,0.27
2023-12-01T14:44:29.169Z,0.23
2023-12-01T14:48:16.909Z,0.20
2023-12-01T14:52:03.973Z,0.18
2023-12-01T14:55:51.966Z,0.13
2023-12-01T14:59:44.167Z,0.09
2023-12-01T15:03:31.572Z,0.06
2023-12-01T15:07:19.682Z,0.06
2023-12-01T15:11:07.329Z,-0.01
2023-12-01T15:14:54.697Z,-0.03
2023-12-01T15:18:41.961Z,-0.04
2023-12-01T15:22:30.472Z,-0.05
2023-12-01T15:26:19.421Z,-0.12
2023-12-01T15:30:06.689Z,-0.21
2023-12-01T15:33:53.768Z,-0.24
2023-12-01T15:37:45.668Z,-0.27
2023-12-01T15:41:33.001Z,-0.33
2023-12-01T15:45:23.491Z,-0.36
2023-12-01T15:49:12.916Z,-0.38
2023-12-01T15:53:00.309Z,-0.40
2023-12-01T15:56:49.147Z,-0.45
2023-12-01T16:00:40.222Z,-0.48
2023-12-01T16:04:27.121Z,-0.51
2023-12-01T16:08:14.435Z,-0.54
2023-12-01T16:12:01.724Z,-0.60
2023-12-01T16:15:48.934Z,-0.58
2023-12-01T16:19:38.757Z,-0.55
2023-12-01T16:23:25.793Z,-0.57
2023-12-01T16:27:13.085Z,-0.56
2023-12-01T16:31:00.576Z,-0.56
2023-12-01T16:34:47.838Z,-0.57
2023-12-01T16:38:35.185Z,-0.56
2023-12-01T16:42:22.361Z,-0.57
2023-12-01T16:46:10.955Z,-0.59
2023-12-01T16:49:57.925Z,-0.59
2023-12-01T16:53:45.252Z,-0.60
2023-12-01T16:57:32.405Z,-0.63
2023-12-01T17:01:20.942Z,-0.63
2023-12-01T17:05:10.876Z,-0.62
2023-12-01T17:09:00.092Z,-0.65
2023-12-01T17:12:45.295Z,-0.71
2023-12-01T17:16:32.259Z,-0.77
2023-12-01T17:20:20.573Z,-0.80
2023-12-01T17:24:07.872Z,-0.82
2023-12-01T17:27:55.147Z,-0.83
2023-12-01T17:31:42.388Z,-0.81
2023-12-01T17:35:30.014Z,-0.79
2023-12-01T17:39:17.381Z,-0.77
2023-12-01T17:43:04.767Z,-0.79
2023-12-01T17:46:52.988Z,-0.81
2023-12-01T17:50:41.579Z,-0.88
2023-12-01T17:54:28.869Z,-0.91
2023-12-01T17:58:16.319Z,-0.92
2023-12-01T18:02:04.687Z,-0.89
2023-12-01T18:05:51.728Z,-0.91
2023-12-01T18:09:42.295Z,-0.96
2023-12-01T18:13:31.974Z,-1.01
2023-12-01T18:17:19.143Z,-1.02
2023-12-01T18:21:08.207Z,-1.05
2023-12-01T18:25:20.990Z,-1.09
2023-12-01T18:29:09.621Z,-1.08
2023-12-01T18:32:57.037Z,-1.08
2023-12-01T18:36:45.345Z,-1.13
2023-12-01T18:40:32.214Z,-1.17
2023-12-01T18:44:19.385Z,-1.20
2023-12-01T18:47:48.688Z,-1.21
2023-12-01T18:51:28.764Z,-1.23
2023-12-01T18:54:16.750Z,-1.22
2023-12-01T18:57:56.598Z,-1.20
2023-12-01T19:01:42.932Z,-1.23
2023-12-01T19:05:10.659Z,-1.22
2023-12-01T19:08:36.933Z,-1.24
2023-12-01T19:12:03.940Z,-1.25
2023-12-01T19:15:30.366Z,-1.27
2023-12-01T19:19:16.996Z,-1.32
2023-12-01T19:22:35.441Z,-1.33
2023-12-01T19:26:05.885Z,-1.33
2023-12-01T19:29:53.187Z,-1.31
2023-12-01T19:33:40.702Z,-1.32
2023-12-01T19:37:27.696Z,-1.35
2023-12-01T19:41:14.613Z,-1.33
2023-12-01T19:45:01.503Z,-1.33
2023-12-01T19:48:32.932Z,-1.33
2023-12-01T19:52:06.216Z,-1.32
2023-12-01T19:55:53.218Z,-1.33
2023-12-01T19:59:39.636Z,-1.31
2023-12-01T20:03:27.010Z,-1.29
2023-12-01T20:06:48.593Z,-1.29
2023-12-01T20:10:34.805Z,-1.29
2023-12-01T20:14:06.732Z,-1.27
2023-12-01T20:17:40.642Z,-1.25
2023-12-01T20:21:27.039Z,-1.24
2023-12-01T20:25:14.261Z,-1.25
2023-12-01T20:29:01.362Z,-1.30
2023-12-01T20:32:48.740Z,-1.28
2023-12-01T20:36:35.118Z,-1.28
2023-12-01T20:40:21.408Z,-1.31
2023-12-01T20:43:49.476Z,-1.32
2023-12-01T20:47:15.943Z,-1.32
2023-12-01T20:50:43.862Z,-1.31
2023-12-01T20:54:34.872Z,-1.27
2023-12-01T20:58:21.971Z,-1.26
2023-12-01T21:02:10.800Z,-1.28
2023-12-01T21:05:57.286Z,-1.29
2023-12-01T21:09:44.050Z,-1.30
2023-12-01T21:13:30.939Z,-1.33
2023-12-01T21:17:18.281Z,-1.33
2023-12-01T21:24:49.468Z,-1.33
2023-12-01T21:28:36.845Z,-1.32
2023-12-01T21:32:25.209Z,-1.32
2023-12-01T21:36:12.275Z,-1.35
2023-12-01T21:39:58.899Z,-1.37
2023-12-01T21:43:46.400Z,-1.38
2023-12-01T21:47:34.891Z,-1.41
2023-12-01T21:51:21.818Z,-1.43
2023-12-01T21:55:09.863Z,-1.46
2023-12-01T21:58:57.095Z,-1.48
2023-12-01T22:02:44.218Z,-1.46
2023-12-01T22:06:34.005Z,-1.45
2023-12-01T22:10:20.886Z,-1.50
2023-12-01T22:14:08.332Z,-1.50
2023-12-01T22:17:57.112Z,-1.54
2023-12-01T22:21:44.139Z,-1.54
2023-12-01T22:25:30.801Z,-1.54
2023-12-01T22:29:17.578Z,-1.56
2023-12-01T22:33:05.206Z,-1.58
2023-12-01T22:36:52.342Z,-1.54
2023-12-01T22:40:39.300Z,-1.54
2023-12-01T22:44:30.587Z,-1.54
2023-12-01T22:48:18.179Z,-1.55
2023-12-01T22:52:06.738Z,-1.58
2023-12-01T22:55:54.157Z,-1.58
2023-12-01T22:59:41.412Z,-1.54
2023-12-01T23:03:29.388Z,-1.55
2023-12-01T23:07:02.133Z,-1.55
2023-12-01T23:10:48.522Z,-1.57
2023-12-01T23:14:07.999Z,-1.57
2023-12-01T23:17:37.006Z,-1.56
2023-12-01T23:21:23.643Z,-1.54
2023-12-01T23:25:10.614Z,-1.57
2023-12-01T23:28:56.113Z,-1.62
2023-12-01T23:32:33.219Z,-1.63
2023-12-01T23:36:19.933Z,-1.65
2023-12-01T23:40:06.130Z,-1.68
2023-12-01T23:43:52.564Z,-1.71
2023-12-01T23:47:38.704Z,-1.74
2023-12-01T23:50:49.684Z,-1.76
2023-12-01T23:54:18.974Z,-1.74
2023-12-01T23:57:58.269Z,-1.77
